sensor_id;sensor_type;location;lat;lon;timestamp;P1;durP1;ratioP1;P2;durP2;ratioP2
68593;SDS011;55563;52.416;13.548;2024-02-28T00:00:27;5.60;;;2.83;;
68593;SDS011;55563;52.416;13.548;2024-02-28T00:02:28;5.20;;;2.90;;
68593;SDS011;55563;52.416;13.548;2024-02-28T00:04:30;7.35;;;3.30;;
68593;SDS011;55563;52.416;13.548;2024-02-28T00:06:31;5.72;;;3.22;;
68593;SDS011;55563;52.416;13.548;2024-02-28T00:08:31;6.13;;;2.90;;
68593;SDS011;55563;52.416;13.548;2024-02-28T00:10:32;7.53;;;3.05;;
68593;SDS011;55563;52.416;13.548;2024-02-28T00:12:32;6.60;;;3.58;;
68593;SDS011;55563;52.416;13.548;2024-02-28T00:14:34;6.88;;;2.92;;
68593;SDS011;55563;52.416;13.548;2024-02-28T00:16:35;7.57;;;3.10;;
68593;SDS011;55563;52.416;13.548;2024-02-28T00:18:35;5.90;;;2.65;;
68593;SDS011;55563;52.416;13.548;2024-02-28T00:20:36;5.40;;;2.60;;
68593;SDS011;55563;52.416;13.548;2024-02-28T00:22:37;6.50;;;3.05;;
68593;SDS011;55563;52.416;13.548;2024-02-28T00:24:38;5.93;;;2.80;;
68593;SDS011;55563;52.416;13.548;2024-02-28T00:26:41;7.10;;;3.15;;
68593;SDS011;55563;52.416;13.548;2024-02-28T00:28:43;6.18;;;2.72;;
68593;SDS011;55563;52.416;13.548;2024-02-28T00:30:43;6.60;;;3.00;;
68593;SDS011;55563;52.416;13.548;2024-02-28T00:32:44;6.78;;;3.03;;
68593;SDS011;55563;52.416;13.548;2024-02-28T00:34:44;6.32;;;3.00;;
68593;SDS011;55563;52.416;13.548;2024-02-28T00:36:45;5.38;;;2.90;;
68593;SDS011;55563;52.416;13.548;2024-02-28T00:38:46;5.95;;;2.90;;
68593;SDS011;55563;52.416;13.548;2024-02-28T00:40:46;6.07;;;2.78;;
68593;SDS011;55563;52.416;13.548;2024-02-28T00:42:47;7.18;;;3.40;;
68593;SDS011;55563;52.416;13.548;2024-02-28T00:44:48;7.95;;;3.40;;
68593;SDS011;55563;52.416;13.548;2024-02-28T00:46:48;6.45;;;3.30;;
68593;SDS011;55563;52.416;13.548;2024-02-28T00:48:49;5.95;;;2.92;;
68593;SDS011;55563;52.416;13.548;2024-02-28T00:50:50;7.63;;;2.75;;
68593;SDS011;55563;52.416;13.548;2024-02-28T00:52:51;5.70;;;2.97;;
68593;SDS011;55563;52.416;13.548;2024-02-28T00:54:51;5.95;;;3.03;;
68593;SDS011;55563;52.416;13.548;2024-02-28T00:56:52;4.82;;;2.53;;
68593;SDS011;55563;52.416;13.548;2024-02-28T00:58:53;6.45;;;3.13;;
68593;SDS011;55563;52.416;13.548;2024-02-28T01:00:53;7.30;;;3.10;;
68593;SDS011;55563;52.416;13.548;2024-02-28T01:02:54;6.80;;;2.70;;
68593;SDS011;55563;52.416;13.548;2024-02-28T01:04:55;7.35;;;3.15;;
68593;SDS011;55563;52.416;13.548;2024-02-28T01:06:55;6.13;;;2.70;;
68593;SDS011;55563;52.416;13.548;2024-02-28T01:08:56;7.60;;;3.03;;
68593;SDS011;55563;52.416;13.548;2024-02-28T01:10:56;6.25;;;3.00;;
68593;SDS011;55563;52.416;13.548;2024-02-28T01:12:58;6.85;;;3.00;;
68593;SDS011;55563;52.416;13.548;2024-02-28T01:14:58;6.05;;;2.67;;
68593;SDS011;55563;52.416;13.548;2024-02-28T01:16:59;6.05;;;2.88;;
68593;SDS011;55563;52.416;13.548;2024-02-28T01:19:00;5.93;;;2.67;;
68593;SDS011;55563;52.416;13.548;2024-02-28T01:21:00;5.22;;;2.30;;
68593;SDS011;55563;52.416;13.548;2024-02-28T01:23:01;7.00;;;2.97;;
68593;SDS011;55563;52.416;13.548;2024-02-28T01:25:02;7.10;;;2.90;;
68593;SDS011;55563;52.416;13.548;2024-02-28T01:27:04;6.25;;;2.95;;
68593;SDS011;55563;52.416;13.548;2024-02-28T01:29:04;5.93;;;3.05;;
68593;SDS011;55563;52.416;13.548;2024-02-28T01:31:05;5.97;;;2.63;;
68593;SDS011;55563;52.416;13.548;2024-02-28T01:33:06;6.38;;;3.10;;
68593;SDS011;55563;52.416;13.548;2024-02-28T01:35:08;6.07;;;3.03;;
68593;SDS011;55563;52.416;13.548;2024-02-28T01:37:09;6.60;;;2.83;;
68593;SDS011;55563;52.416;13.548;2024-02-28T01:39:09;8.93;;;3.22;;
68593;SDS011;55563;52.416;13.548;2024-02-28T01:41:10;6.97;;;2.70;;
68593;SDS011;55563;52.416;13.548;2024-02-28T01:43:11;5.40;;;2.95;;
68593;SDS011;55563;52.416;13.548;2024-02-28T01:45:13;5.95;;;2.75;;
68593;SDS011;55563;52.416;13.548;2024-02-28T01:47:14;7.80;;;2.95;;
68593;SDS011;55563;52.416;13.548;2024-02-28T01:49:15;6.15;;;2.75;;
68593;SDS011;55563;52.416;13.548;2024-02-28T01:51:17;5.97;;;3.00;;
68593;SDS011;55563;52.416;13.548;2024-02-28T01:53:18;6.30;;;2.95;;
68593;SDS011;55563;52.416;13.548;2024-02-28T01:55:18;5.82;;;2.97;;
68593;SDS011;55563;52.416;13.548;2024-02-28T01:57:19;5.90;;;3.08;;
68593;SDS011;55563;52.416;13.548;2024-02-28T01:59:20;7.72;;;3.20;;
68593;SDS011;55563;52.416;13.548;2024-02-28T02:01:26;6.15;;;2.78;;
68593;SDS011;55563;52.416;13.548;2024-02-28T02:03:27;7.68;;;3.13;;
68593;SDS011;55563;52.416;13.548;2024-02-28T02:05:29;6.70;;;2.78;;
68593;SDS011;55563;52.416;13.548;2024-02-28T02:07:30;8.48;;;3.50;;
68593;SDS011;55563;52.416;13.548;2024-02-28T02:09:31;7.75;;;3.17;;
68593;SDS011;55563;52.416;13.548;2024-02-28T02:11:32;7.90;;;2.90;;
68593;SDS011;55563;52.416;13.548;2024-02-28T02:13:33;6.05;;;2.75;;
68593;SDS011;55563;52.416;13.548;2024-02-28T02:15:35;7.05;;;3.03;;
68593;SDS011;55563;52.416;13.548;2024-02-28T02:17:36;5.93;;;2.55;;
68593;SDS011;55563;52.416;13.548;2024-02-28T02:19:36;6.43;;;2.83;;
68593;SDS011;55563;52.416;13.548;2024-02-28T02:21:38;8.05;;;3.08;;
68593;SDS011;55563;52.416;13.548;2024-02-28T02:23:44;6.78;;;2.92;;
68593;SDS011;55563;52.416;13.548;2024-02-28T02:25:46;6.80;;;2.97;;
68593;SDS011;55563;52.416;13.548;2024-02-28T02:27:48;5.68;;;2.83;;
68593;SDS011;55563;52.416;13.548;2024-02-28T02:29:48;6.05;;;2.97;;
68593;SDS011;55563;52.416;13.548;2024-02-28T02:31:49;7.70;;;2.97;;
68593;SDS011;55563;52.416;13.548;2024-02-28T02:33:49;6.45;;;2.60;;
68593;SDS011;55563;52.416;13.548;2024-02-28T02:35:51;6.43;;;3.25;;
68593;SDS011;55563;52.416;13.548;2024-02-28T02:37:52;6.63;;;2.75;;
68593;SDS011;55563;52.416;13.548;2024-02-28T02:39:52;7.13;;;2.75;;
68593;SDS011;55563;52.416;13.548;2024-02-28T02:41:53;7.10;;;3.10;;
68593;SDS011;55563;52.416;13.548;2024-02-28T02:43:54;7.45;;;2.95;;
68593;SDS011;55563;52.416;13.548;2024-02-28T02:45:54;5.63;;;2.97;;
68593;SDS011;55563;52.416;13.548;2024-02-28T02:47:55;6.45;;;2.97;;
68593;SDS011;55563;52.416;13.548;2024-02-28T02:49:56;8.02;;;3.00;;
68593;SDS011;55563;52.416;13.548;2024-02-28T02:51:56;6.15;;;2.78;;
68593;SDS011;55563;52.416;13.548;2024-02-28T02:53:57;5.45;;;2.70;;
68593;SDS011;55563;52.416;13.548;2024-02-28T02:55:58;6.88;;;2.95;;
68593;SDS011;55563;52.416;13.548;2024-02-28T02:57:58;7.28;;;2.95;;
68593;SDS011;55563;52.416;13.548;2024-02-28T02:59:59;7.05;;;3.15;;
68593;SDS011;55563;52.416;13.548;2024-02-28T03:01:59;7.60;;;2.75;;
68593;SDS011;55563;52.416;13.548;2024-02-28T03:04:00;7.35;;;2.50;;
68593;SDS011;55563;52.416;13.548;2024-02-28T03:06:01;5.20;;;2.97;;
68593;SDS011;55563;52.416;13.548;2024-02-28T03:08:01;6.35;;;3.15;;
68593;SDS011;55563;52.416;13.548;2024-02-28T03:10:02;5.28;;;2.53;;
68593;SDS011;55563;52.416;13.548;2024-02-28T03:12:04;4.47;;;2.30;;
68593;SDS011;55563;52.416;13.548;2024-02-28T03:14:04;6.03;;;2.63;;
68593;SDS011;55563;52.416;13.548;2024-02-28T03:16:05;6.03;;;2.88;;
68593;SDS011;55563;52.416;13.548;2024-02-28T03:18:06;4.80;;;2.38;;
68593;SDS011;55563;52.416;13.548;2024-02-28T03:20:06;4.32;;;2.28;;
68593;SDS011;55563;52.416;13.548;2024-02-28T03:22:08;4.00;;;2.20;;
68593;SDS011;55563;52.416;13.548;2024-02-28T03:24:08;5.28;;;2.50;;
68593;SDS011;55563;52.416;13.548;2024-02-28T03:26:09;5.90;;;2.63;;
68593;SDS011;55563;52.416;13.548;2024-02-28T03:28:10;4.22;;;2.25;;
68593;SDS011;55563;52.416;13.548;2024-02-28T03:30:10;4.97;;;2.30;;
68593;SDS011;55563;52.416;13.548;2024-02-28T03:32:11;3.88;;;2.35;;
68593;SDS011;55563;52.416;13.548;2024-02-28T03:34:12;4.45;;;2.50;;
68593;SDS011;55563;52.416;13.548;2024-02-28T03:36:12;5.18;;;2.72;;
68593;SDS011;55563;52.416;13.548;2024-02-28T03:38:13;5.18;;;2.20;;
68593;SDS011;55563;52.416;13.548;2024-02-28T03:40:13;4.63;;;2.35;;
68593;SDS011;55563;52.416;13.548;2024-02-28T03:42:15;4.03;;;2.28;;
68593;SDS011;55563;52.416;13.548;2024-02-28T03:44:15;4.32;;;2.40;;
68593;SDS011;55563;52.416;13.548;2024-02-28T03:46:16;5.00;;;2.53;;
68593;SDS011;55563;52.416;13.548;2024-02-28T03:48:16;4.55;;;2.22;;
68593;SDS011;55563;52.416;13.548;2024-02-28T03:50:17;4.88;;;2.50;;
68593;SDS011;55563;52.416;13.548;2024-02-28T03:52:17;8.05;;;3.60;;
68593;SDS011;55563;52.416;13.548;2024-02-28T03:54:18;6.50;;;2.90;;
68593;SDS011;55563;52.416;13.548;2024-02-28T03:56:22;4.85;;;2.58;;
68593;SDS011;55563;52.416;13.548;2024-02-28T03:58:25;5.68;;;2.75;;
68593;SDS011;55563;52.416;13.548;2024-02-28T04:00:25;4.93;;;2.60;;
68593;SDS011;55563;52.416;13.548;2024-02-28T04:02:26;5.07;;;2.65;;
68593;SDS011;55563;52.416;13.548;2024-02-28T04:04:26;5.32;;;2.47;;
68593;SDS011;55563;52.416;13.548;2024-02-28T04:06:27;4.28;;;2.35;;
68593;SDS011;55563;52.416;13.548;2024-02-28T04:08:28;5.10;;;2.47;;
68593;SDS011;55563;52.416;13.548;2024-02-28T04:10:28;4.85;;;2.30;;
68593;SDS011;55563;52.416;13.548;2024-02-28T04:12:29;5.93;;;2.65;;
68593;SDS011;55563;52.416;13.548;2024-02-28T04:14:29;4.63;;;2.22;;
68593;SDS011;55563;52.416;13.548;2024-02-28T04:16:30;4.40;;;2.17;;
68593;SDS011;55563;52.416;13.548;2024-02-28T04:18:31;3.42;;;2.00;;
68593;SDS011;55563;52.416;13.548;2024-02-28T04:20:31;4.93;;;2.53;;
68593;SDS011;55563;52.416;13.548;2024-02-28T04:22:32;5.32;;;2.33;;
68593;SDS011;55563;52.416;13.548;2024-02-28T04:24:33;4.03;;;2.13;;
68593;SDS011;55563;52.416;13.548;2024-02-28T04:26:33;3.42;;;1.83;;
68593;SDS011;55563;52.416;13.548;2024-02-28T04:28:34;3.92;;;2.40;;
68593;SDS011;55563;52.416;13.548;2024-02-28T04:30:34;4.65;;;2.35;;
68593;SDS011;55563;52.416;13.548;2024-02-28T04:32:35;4.22;;;2.28;;
68593;SDS011;55563;52.416;13.548;2024-02-28T04:34:36;5.22;;;2.17;;
68593;SDS011;55563;52.416;13.548;2024-02-28T04:36:37;4.75;;;2.40;;
68593;SDS011;55563;52.416;13.548;2024-02-28T04:38:38;4.40;;;2.42;;
68593;SDS011;55563;52.416;13.548;2024-02-28T04:40:39;7.13;;;2.22;;
68593;SDS011;55563;52.416;13.548;2024-02-28T04:42:39;5.82;;;2.20;;
68593;SDS011;55563;52.416;13.548;2024-02-28T04:44:42;4.85;;;2.35;;
68593;SDS011;55563;52.416;13.548;2024-02-28T04:46:42;3.83;;;1.90;;
68593;SDS011;55563;52.416;13.548;2024-02-28T04:48:43;4.63;;;2.38;;
68593;SDS011;55563;52.416;13.548;2024-02-28T04:50:43;5.13;;;2.17;;
68593;SDS011;55563;52.416;13.548;2024-02-28T04:52:44;2.92;;;1.90;;
68593;SDS011;55563;52.416;13.548;2024-02-28T04:54:45;5.85;;;2.47;;
68593;SDS011;55563;52.416;13.548;2024-02-28T04:56:45;3.60;;;2.00;;
68593;SDS011;55563;52.416;13.548;2024-02-28T04:58:46;3.53;;;2.05;;
68593;SDS011;55563;52.416;13.548;2024-02-28T05:00:47;4.15;;;1.80;;
68593;SDS011;55563;52.416;13.548;2024-02-28T05:02:47;3.40;;;1.92;;
68593;SDS011;55563;52.416;13.548;2024-02-28T05:04:48;4.35;;;1.85;;
68593;SDS011;55563;52.416;13.548;2024-02-28T05:06:49;3.80;;;2.00;;
68593;SDS011;55563;52.416;13.548;2024-02-28T05:08:50;4.22;;;2.10;;
68593;SDS011;55563;52.416;13.548;2024-02-28T05:10:50;4.32;;;1.85;;
68593;SDS011;55563;52.416;13.548;2024-02-28T05:12:51;3.10;;;1.80;;
68593;SDS011;55563;52.416;13.548;2024-02-28T05:14:52;3.70;;;1.80;;
68593;SDS011;55563;52.416;13.548;2024-02-28T05:16:52;3.08;;;1.75;;
68593;SDS011;55563;52.416;13.548;2024-02-28T05:18:53;4.35;;;1.92;;
68593;SDS011;55563;52.416;13.548;2024-02-28T05:20:54;3.45;;;2.00;;
68593;SDS011;55563;52.416;13.548;2024-02-28T05:22:55;2.53;;;1.40;;
68593;SDS011;55563;52.416;13.548;2024-02-28T05:24:56;3.30;;;1.95;;
68593;SDS011;55563;52.416;13.548;2024-02-28T05:26:56;3.85;;;1.65;;
68593;SDS011;55563;52.416;13.548;2024-02-28T05:28:57;3.67;;;1.77;;
68593;SDS011;55563;52.416;13.548;2024-02-28T05:30:57;3.45;;;1.77;;
68593;SDS011;55563;52.416;13.548;2024-02-28T05:32:58;4.70;;;2.30;;
68593;SDS011;55563;52.416;13.548;2024-02-28T05:34:59;3.75;;;2.00;;
68593;SDS011;55563;52.416;13.548;2024-02-28T05:37:00;3.55;;;2.15;;
68593;SDS011;55563;52.416;13.548;2024-02-28T05:39:01;6.15;;;2.10;;
68593;SDS011;55563;52.416;13.548;2024-02-28T05:41:02;5.75;;;2.15;;
68593;SDS011;55563;52.416;13.548;2024-02-28T05:43:02;5.55;;;2.30;;
68593;SDS011;55563;52.416;13.548;2024-02-28T05:45:04;5.07;;;2.28;;
68593;SDS011;55563;52.416;13.548;2024-02-28T05:47:06;4.15;;;2.25;;
68593;SDS011;55563;52.416;13.548;2024-02-28T05:49:06;5.88;;;2.53;;
68593;SDS011;55563;52.416;13.548;2024-02-28T05:51:08;3.78;;;2.40;;
68593;SDS011;55563;52.416;13.548;2024-02-28T05:53:08;4.18;;;2.10;;
68593;SDS011;55563;52.416;13.548;2024-02-28T05:55:09;4.65;;;2.25;;
68593;SDS011;55563;52.416;13.548;2024-02-28T05:57:10;4.40;;;1.92;;
68593;SDS011;55563;52.416;13.548;2024-02-28T05:59:10;4.78;;;2.10;;
68593;SDS011;55563;52.416;13.548;2024-02-28T06:01:11;4.38;;;2.33;;
68593;SDS011;55563;52.416;13.548;2024-02-28T06:03:14;4.88;;;2.45;;
68593;SDS011;55563;52.416;13.548;2024-02-28T06:05:15;4.78;;;2.70;;
68593;SDS011;55563;52.416;13.548;2024-02-28T06:07:16;5.82;;;3.10;;
68593;SDS011;55563;52.416;13.548;2024-02-28T06:09:16;6.10;;;3.00;;
68593;SDS011;55563;52.416;13.548;2024-02-28T06:11:17;6.68;;;3.35;;
68593;SDS011;55563;52.416;13.548;2024-02-28T06:13:18;5.10;;;2.67;;
68593;SDS011;55563;52.416;13.548;2024-02-28T06:15:19;5.60;;;2.70;;
68593;SDS011;55563;52.416;13.548;2024-02-28T06:17:20;5.88;;;2.85;;
68593;SDS011;55563;52.416;13.548;2024-02-28T06:19:21;5.78;;;2.50;;
68593;SDS011;55563;52.416;13.548;2024-02-28T06:21:22;4.45;;;2.35;;
68593;SDS011;55563;52.416;13.548;2024-02-28T06:23:23;5.38;;;2.50;;
68593;SDS011;55563;52.416;13.548;2024-02-28T06:25:23;4.20;;;2.17;;
68593;SDS011;55563;52.416;13.548;2024-02-28T06:27:25;6.25;;;3.03;;
68593;SDS011;55563;52.416;13.548;2024-02-28T06:29:27;5.47;;;2.45;;
68593;SDS011;55563;52.416;13.548;2024-02-28T06:31:27;4.47;;;2.55;;
68593;SDS011;55563;52.416;13.548;2024-02-28T06:33:31;5.32;;;2.35;;
68593;SDS011;55563;52.416;13.548;2024-02-28T06:35:32;3.72;;;2.05;;
68593;SDS011;55563;52.416;13.548;2024-02-28T06:37:33;3.95;;;2.22;;
68593;SDS011;55563;52.416;13.548;2024-02-28T06:39:34;4.55;;;2.58;;
68593;SDS011;55563;52.416;13.548;2024-02-28T06:41:34;6.13;;;2.85;;
68593;SDS011;55563;52.416;13.548;2024-02-28T06:43:35;6.32;;;2.97;;
68593;SDS011;55563;52.416;13.548;2024-02-28T06:45:36;5.63;;;2.92;;
68593;SDS011;55563;52.416;13.548;2024-02-28T06:47:37;6.97;;;3.47;;
68593;SDS011;55563;52.416;13.548;2024-02-28T06:49:37;7.47;;;3.53;;
68593;SDS011;55563;52.416;13.548;2024-02-28T06:51:38;6.57;;;3.28;;
68593;SDS011;55563;52.416;13.548;2024-02-28T06:53:39;6.72;;;3.10;;
68593;SDS011;55563;52.416;13.548;2024-02-28T06:55:39;8.65;;;3.25;;
68593;SDS011;55563;52.416;13.548;2024-02-28T06:57:41;6.15;;;3.30;;
68593;SDS011;55563;52.416;13.548;2024-02-28T06:59:43;6.88;;;3.33;;
68593;SDS011;55563;52.416;13.548;2024-02-28T07:01:43;6.15;;;3.05;;
68593;SDS011;55563;52.416;13.548;2024-02-28T07:03:44;7.00;;;3.53;;
68593;SDS011;55563;52.416;13.548;2024-02-28T07:05:44;7.00;;;3.72;;
68593;SDS011;55563;52.416;13.548;2024-02-28T07:07:45;6.50;;;3.05;;
68593;SDS011;55563;52.416;13.548;2024-02-28T07:09:46;6.97;;;3.90;;
68593;SDS011;55563;52.416;13.548;2024-02-28T07:11:46;10.10;;;4.22;;
68593;SDS011;55563;52.416;13.548;2024-02-28T07:13:47;6.85;;;3.55;;
68593;SDS011;55563;52.416;13.548;2024-02-28T07:15:48;7.43;;;3.80;;
68593;SDS011;55563;52.416;13.548;2024-02-28T07:17:49;8.30;;;3.83;;
68593;SDS011;55563;52.416;13.548;2024-02-28T07:19:49;7.25;;;3.40;;
68593;SDS011;55563;52.416;13.548;2024-02-28T07:21:50;9.25;;;3.65;;
68593;SDS011;55563;52.416;13.548;2024-02-28T07:23:51;6.10;;;3.47;;
68593;SDS011;55563;52.416;13.548;2024-02-28T07:25:51;5.88;;;2.88;;
68593;SDS011;55563;52.416;13.548;2024-02-28T07:27:52;5.72;;;2.95;;
68593;SDS011;55563;52.416;13.548;2024-02-28T07:29:53;6.35;;;3.20;;
68593;SDS011;55563;52.416;13.548;2024-02-28T07:31:53;5.90;;;3.03;;
68593;SDS011;55563;52.416;13.548;2024-02-28T07:33:54;7.88;;;3.28;;
68593;SDS011;55563;52.416;13.548;2024-02-28T07:35:54;6.95;;;3.00;;
68593;SDS011;55563;52.416;13.548;2024-02-28T07:37:57;5.97;;;3.05;;
68593;SDS011;55563;52.416;13.548;2024-02-28T07:39:58;5.40;;;2.92;;
68593;SDS011;55563;52.416;13.548;2024-02-28T07:41:58;4.90;;;2.60;;
68593;SDS011;55563;52.416;13.548;2024-02-28T07:43:59;5.40;;;2.58;;
68593;SDS011;55563;52.416;13.548;2024-02-28T07:46:01;5.82;;;2.97;;
68593;SDS011;55563;52.416;13.548;2024-02-28T07:48:01;6.95;;;3.47;;
68593;SDS011;55563;52.416;13.548;2024-02-28T07:50:02;6.05;;;3.10;;
68593;SDS011;55563;52.416;13.548;2024-02-28T07:52:03;7.47;;;3.75;;
68593;SDS011;55563;52.416;13.548;2024-02-28T07:54:04;8.20;;;4.25;;
68593;SDS011;55563;52.416;13.548;2024-02-28T07:56:04;9.38;;;5.00;;
68593;SDS011;55563;52.416;13.548;2024-02-28T07:58:05;7.13;;;3.80;;
68593;SDS011;55563;52.416;13.548;2024-02-28T08:00:06;8.10;;;3.55;;
68593;SDS011;55563;52.416;13.548;2024-02-28T08:02:15;7.25;;;4.00;;
68593;SDS011;55563;52.416;13.548;2024-02-28T08:04:15;6.50;;;3.15;;
68593;SDS011;55563;52.416;13.548;2024-02-28T08:06:16;6.07;;;3.22;;
68593;SDS011;55563;52.416;13.548;2024-02-28T08:08:17;4.40;;;2.42;;
68593;SDS011;55563;52.416;13.548;2024-02-28T08:10:17;4.90;;;2.33;;
68593;SDS011;55563;52.416;13.548;2024-02-28T08:12:18;4.20;;;1.88;;
68593;SDS011;55563;52.416;13.548;2024-02-28T08:14:19;3.30;;;1.90;;
68593;SDS011;55563;52.416;13.548;2024-02-28T08:16:19;4.88;;;2.45;;
68593;SDS011;55563;52.416;13.548;2024-02-28T08:18:20;5.43;;;2.22;;
68593;SDS011;55563;52.416;13.548;2024-02-28T08:20:20;3.83;;;2.05;;
68593;SDS011;55563;52.416;13.548;2024-02-28T08:22:21;3.97;;;1.92;;
68593;SDS011;55563;52.416;13.548;2024-02-28T08:24:21;3.83;;;2.17;;
68593;SDS011;55563;52.416;13.548;2024-02-28T08:26:22;4.28;;;2.20;;
68593;SDS011;55563;52.416;13.548;2024-02-28T08:28:23;3.83;;;2.08;;
68593;SDS011;55563;52.416;13.548;2024-02-28T08:30:24;4.82;;;1.90;;
68593;SDS011;55563;52.416;13.548;2024-02-28T08:32:25;3.45;;;1.95;;
68593;SDS011;55563;52.416;13.548;2024-02-28T08:34:26;3.50;;;2.00;;
68593;SDS011;55563;52.416;13.548;2024-02-28T08:36:27;3.83;;;2.00;;
68593;SDS011;55563;52.416;13.548;2024-02-28T08:38:27;4.32;;;2.08;;
68593;SDS011;55563;52.416;13.548;2024-02-28T08:40:28;4.35;;;1.98;;
68593;SDS011;55563;52.416;13.548;2024-02-28T08:42:30;3.78;;;2.15;;
68593;SDS011;55563;52.416;13.548;2024-02-28T08:44:31;3.90;;;2.00;;
68593;SDS011;55563;52.416;13.548;2024-02-28T08:46:32;4.18;;;1.95;;
68593;SDS011;55563;52.416;13.548;2024-02-28T08:48:33;2.53;;;1.50;;
68593;SDS011;55563;52.416;13.548;2024-02-28T08:50:34;2.63;;;1.45;;
68593;SDS011;55563;52.416;13.548;2024-02-28T08:52:35;2.65;;;1.55;;
68593;SDS011;55563;52.416;13.548;2024-02-28T08:54:35;2.95;;;1.65;;
68593;SDS011;55563;52.416;13.548;2024-02-28T08:56:36;2.75;;;1.50;;
68593;SDS011;55563;52.416;13.548;2024-02-28T08:58:37;2.47;;;1.70;;
68593;SDS011;55563;52.416;13.548;2024-02-28T09:00:38;3.53;;;1.70;;
68593;SDS011;55563;52.416;13.548;2024-02-28T09:02:38;3.80;;;1.55;;
68593;SDS011;55563;52.416;13.548;2024-02-28T09:04:39;3.38;;;1.85;;
68593;SDS011;55563;52.416;13.548;2024-02-28T09:06:40;3.53;;;1.98;;
68593;SDS011;55563;52.416;13.548;2024-02-28T09:08:40;3.50;;;1.55;;
68593;SDS011;55563;52.416;13.548;2024-02-28T09:10:41;2.65;;;1.70;;
68593;SDS011;55563;52.416;13.548;2024-02-28T09:12:41;3.60;;;2.00;;
68593;SDS011;55563;52.416;13.548;2024-02-28T09:14:42;2.97;;;1.80;;
68593;SDS011;55563;52.416;13.548;2024-02-28T09:16:44;3.05;;;1.67;;
68593;SDS011;55563;52.416;13.548;2024-02-28T09:18:46;3.17;;;1.77;;
68593;SDS011;55563;52.416;13.548;2024-02-28T09:20:46;2.85;;;1.73;;
68593;SDS011;55563;52.416;13.548;2024-02-28T09:22:47;2.28;;;1.63;;
68593;SDS011;55563;52.416;13.548;2024-02-28T09:24:48;2.70;;;1.50;;
68593;SDS011;55563;52.416;13.548;2024-02-28T09:26:49;3.20;;;1.42;;
68593;SDS011;55563;52.416;13.548;2024-02-28T09:28:49;2.67;;;1.35;;
68593;SDS011;55563;52.416;13.548;2024-02-28T09:30:50;3.50;;;1.83;;
68593;SDS011;55563;52.416;13.548;2024-02-28T09:34:52;1.98;;;1.17;;
68593;SDS011;55563;52.416;13.548;2024-02-28T09:36:53;2.55;;;1.33;;
68593;SDS011;55563;52.416;13.548;2024-02-28T09:38:53;2.67;;;1.83;;
68593;SDS011;55563;52.416;13.548;2024-02-28T09:40:54;3.00;;;1.83;;
68593;SDS011;55563;52.416;13.548;2024-02-28T09:43:00;3.17;;;1.75;;
68593;SDS011;55563;52.416;13.548;2024-02-28T09:45:02;3.50;;;1.73;;
68593;SDS011;55563;52.416;13.548;2024-02-28T09:47:04;3.17;;;1.92;;
68593;SDS011;55563;52.416;13.548;2024-02-28T09:49:04;3.70;;;2.00;;
68593;SDS011;55563;52.416;13.548;2024-02-28T09:51:06;2.95;;;1.70;;
68593;SDS011;55563;52.416;13.548;2024-02-28T09:53:08;3.20;;;1.83;;
68593;SDS011;55563;52.416;13.548;2024-02-28T09:55:09;4.00;;;1.92;;
68593;SDS011;55563;52.416;13.548;2024-02-28T09:57:10;3.67;;;2.10;;
68593;SDS011;55563;52.416;13.548;2024-02-28T09:59:11;3.80;;;1.65;;
68593;SDS011;55563;52.416;13.548;2024-02-28T10:01:13;4.68;;;2.28;;
68593;SDS011;55563;52.416;13.548;2024-02-28T10:03:17;4.53;;;2.25;;
68593;SDS011;55563;52.416;13.548;2024-02-28T10:05:19;5.63;;;2.20;;
68593;SDS011;55563;52.416;13.548;2024-02-28T10:07:21;4.68;;;2.50;;
68593;SDS011;55563;52.416;13.548;2024-02-28T10:09:22;4.88;;;2.45;;
68593;SDS011;55563;52.416;13.548;2024-02-28T10:11:23;4.32;;;2.30;;
68593;SDS011;55563;52.416;13.548;2024-02-28T10:13:24;4.07;;;2.42;;
68593;SDS011;55563;52.416;13.548;2024-02-28T10:15:26;6.00;;;2.40;;
68593;SDS011;55563;52.416;13.548;2024-02-28T10:17:27;6.22;;;3.03;;
68593;SDS011;55563;52.416;13.548;2024-02-28T10:19:28;5.65;;;2.78;;
68593;SDS011;55563;52.416;13.548;2024-02-28T10:21:30;6.15;;;2.90;;
68593;SDS011;55563;52.416;13.548;2024-02-28T10:23:32;6.97;;;3.10;;
68593;SDS011;55563;52.416;13.548;2024-02-28T10:25:33;4.63;;;2.88;;
68593;SDS011;55563;52.416;13.548;2024-02-28T10:27:34;7.72;;;4.05;;
68593;SDS011;55563;52.416;13.548;2024-02-28T10:29:35;8.35;;;3.88;;
68593;SDS011;55563;52.416;13.548;2024-02-28T10:31:36;6.68;;;3.45;;
68593;SDS011;55563;52.416;13.548;2024-02-28T10:33:37;6.72;;;2.97;;
68593;SDS011;55563;52.416;13.548;2024-02-28T10:35:38;6.90;;;3.20;;
68593;SDS011;55563;52.416;13.548;2024-02-28T10:37:39;6.40;;;3.30;;
68593;SDS011;55563;52.416;13.548;2024-02-28T10:39:40;7.38;;;3.42;;
68593;SDS011;55563;52.416;13.548;2024-02-28T10:41:43;7.60;;;3.13;;
68593;SDS011;55563;52.416;13.548;2024-02-28T10:43:46;6.85;;;3.42;;
68593;SDS011;55563;52.416;13.548;2024-02-28T10:45:49;7.18;;;3.35;;
68593;SDS011;55563;52.416;13.548;2024-02-28T10:47:51;6.63;;;2.95;;
68593;SDS011;55563;52.416;13.548;2024-02-28T10:49:53;9.18;;;3.75;;
68593;SDS011;55563;52.416;13.548;2024-02-28T10:51:54;8.30;;;4.43;;
68593;SDS011;55563;52.416;13.548;2024-02-28T10:54:12;9.63;;;3.85;;
68593;SDS011;55563;52.416;13.548;2024-02-28T10:56:13;7.60;;;3.88;;
68593;SDS011;55563;52.416;13.548;2024-02-28T10:58:16;7.38;;;3.60;;
68593;SDS011;55563;52.416;13.548;2024-02-28T11:00:19;6.57;;;3.35;;
68593;SDS011;55563;52.416;13.548;2024-02-28T11:02:20;8.10;;;3.70;;
68593;SDS011;55563;52.416;13.548;2024-02-28T11:04:21;7.18;;;3.25;;
68593;SDS011;55563;52.416;13.548;2024-02-28T11:06:22;7.13;;;3.47;;
68593;SDS011;55563;52.416;13.548;2024-02-28T11:08:24;7.40;;;3.40;;
68593;SDS011;55563;52.416;13.548;2024-02-28T11:10:30;9.15;;;3.88;;
68593;SDS011;55563;52.416;13.548;2024-02-28T11:12:33;8.60;;;3.45;;
68593;SDS011;55563;52.416;13.548;2024-02-28T11:14:34;9.48;;;3.78;;
68593;SDS011;55563;52.416;13.548;2024-02-28T11:16:34;10.65;;;4.15;;
68593;SDS011;55563;52.416;13.548;2024-02-28T11:18:47;9.02;;;4.28;;
68593;SDS011;55563;52.416;13.548;2024-02-28T11:20:48;8.35;;;3.83;;
68593;SDS011;55563;52.416;13.548;2024-02-28T11:22:56;7.95;;;4.00;;
68593;SDS011;55563;52.416;13.548;2024-02-28T11:24:58;7.93;;;3.97;;
68593;SDS011;55563;52.416;13.548;2024-02-28T11:26:58;8.68;;;4.10;;
68593;SDS011;55563;52.416;13.548;2024-02-28T11:28:59;7.90;;;4.03;;
68593;SDS011;55563;52.416;13.548;2024-02-28T11:31:00;6.57;;;3.38;;
68593;SDS011;55563;52.416;13.548;2024-02-28T11:33:00;8.18;;;3.83;;
68593;SDS011;55563;52.416;13.548;2024-02-28T11:35:01;7.53;;;3.63;;
68593;SDS011;55563;52.416;13.548;2024-02-28T11:37:02;7.45;;;3.35;;
68593;SDS011;55563;52.416;13.548;2024-02-28T11:39:03;8.00;;;3.67;;
68593;SDS011;55563;52.416;13.548;2024-02-28T11:41:07;8.00;;;4.03;;
68593;SDS011;55563;52.416;13.548;2024-02-28T11:43:07;8.82;;;4.00;;
68593;SDS011;55563;52.416;13.548;2024-02-28T11:45:09;8.20;;;3.40;;
68593;SDS011;55563;52.416;13.548;2024-02-28T11:47:10;9.55;;;4.07;;
68593;SDS011;55563;52.416;13.548;2024-02-28T11:49:12;8.88;;;3.58;;
68593;SDS011;55563;52.416;13.548;2024-02-28T11:51:13;6.35;;;3.22;;
68593;SDS011;55563;52.416;13.548;2024-02-28T11:53:14;8.32;;;4.05;;
68593;SDS011;55563;52.416;13.548;2024-02-28T11:55:14;6.65;;;3.28;;
68593;SDS011;55563;52.416;13.548;2024-02-28T11:57:15;6.40;;;3.13;;
68593;SDS011;55563;52.416;13.548;2024-02-28T11:59:17;6.43;;;3.20;;